Time;durP1;ratioP1;P1;durP2;ratioP2;P2;SDS_P1;SDS_P2;PMS_P1;PMS_P2;Temp;Humidity;BMP_temperature;BMP_pressure;BME280_temperature;BME280_humidity;BME280_pressure;Samples;Min_cycle;Max_cycle;Signal;HPM_P1;HPM_P2
2022/11/17 00:02:08;;;;;;;2.85;1.30;;;;;;;12.25;68.65;98736.91;5140053;27;20049;-66
2022/11/17 00:04:36;;;;;;;7.78;1.95;;;;;;;12.26;68.49;98735.03;5142793;27;20051;-66
2022/11/17 00:07:04;;;;;;;4.00;1.55;;;;;;;12.24;68.48;98731.81;5131360;27;20050;-66
2022/11/17 00:09:31;;;;;;;6.15;1.67;;;;;;;12.25;68.49;98722.66;5137932;27;20043;-68
2022/11/17 00:14:50;;;;;;;4.75;1.17;;;;;;;12.23;68.77;98701.41;5139049;27;20042;-67
2022/11/17 00:17:18;;;;;;;3.60;1.50;;;;;;;12.23;69.04;98700.59;5143124;27;20058;-67
2022/11/17 00:22:31;;;;;;;3.95;1.40;;;;;;;12.24;68.70;98688.72;5132199;27;20559;-67
2022/11/17 00:24:59;;;;;;;4.57;1.80;;;;;;;12.24;69.09;98677.97;5142366;27;20077;-67
2022/11/17 00:27:27;;;;;;;4.20;1.98;;;;;;;12.16;68.83;98665.13;5142631;27;20057;-67
2022/11/17 00:29:56;;;;;;;6.05;2.33;;;;;;;12.23;68.73;98665.59;5144042;27;20051;-67
2022/11/17 00:35:10;;;;;;;4.57;1.45;;;;;;;12.22;69.12;98653.19;5138062;27;20043;-67
2022/11/17 00:38:14;;;;;;;2.03;1.40;;;;;;;12.22;69.03;98659.38;5126633;27;20050;-68
2022/11/17 00:40:27;;;;;;;3.22;1.23;;;;;;;12.22;68.79;98645.13;5130966;27;20091;-67
2022/11/17 00:42:54;;;;;;;2.28;1.40;;;;;;;12.22;69.13;98654.00;5141873;27;20043;-67
2022/11/17 00:45:24;;;;;;;4.90;1.52;;;;;;;12.31;68.70;98646.09;5137453;27;20035;-68
2022/11/17 00:47:51;;;;;;;3.88;1.48;;;;;;;12.25;69.26;98641.84;5140836;27;20134;-67
2022/11/17 00:50:19;;;;;;;5.00;1.42;;;;;;;12.24;69.02;98642.94;5143044;27;20043;-67
2022/11/17 00:52:47;;;;;;;2.88;1.40;;;;;;;12.25;69.28;98637.28;5131489;27;20047;-67
2022/11/17 00:55:14;;;;;;;4.25;1.48;;;;;;;12.27;69.07;98637.00;5137510;27;20063;-67
2022/11/17 00:57:42;;;;;;;2.60;1.30;;;;;;;12.24;69.39;98632.97;5142565;27;20095;-68
2022/11/17 01:00:11;;;;;;;2.47;1.10;;;;;;;12.22;69.59;98632.47;5137288;27;20043;-66
2022/11/17 01:02:40;;;;;;;3.75;1.02;;;;;;;12.22;69.39;98612.81;5136410;28;20480;-67
2022/11/17 01:05:08;;;;;;;2.95;1.60;;;;;;;12.22;69.35;98620.88;5137800;28;20051;-67
2022/11/17 01:07:35;;;;;;;2.80;1.20;;;;;;;12.21;69.65;98612.00;5142187;27;20046;-67
2022/11/17 01:10:04;;;;;;;3.50;1.20;;;;;;;12.21;69.76;98606.63;5131438;28;20061;-67
2022/11/17 01:12:31;;;;;;;2.38;1.20;;;;;;;12.22;69.60;98589.38;5136013;28;20047;-67
2022/11/17 01:14:59;;;;;;;1.88;1.10;;;;;;;12.22;69.59;98562.44;5138778;28;20480;-66
2022/11/17 01:17:27;;;;;;;3.13;1.58;;;;;;;12.23;69.45;98564.06;5134167;28;20493;-67
2022/11/17 01:19:56;;;;;;;1.80;1.05;;;;;;;12.16;69.60;98557.41;5139037;28;20043;-67
2022/11/17 01:22:24;;;;;;;2.30;1.00;;;;;;;12.26;69.62;98576.13;5138293;27;20055;-67
2022/11/17 01:24:51;;;;;;;2.97;0.93;;;;;;;12.26;69.80;98576.94;5141665;27;20039;-67
2022/11/17 01:27:19;;;;;;;3.00;1.42;;;;;;;12.25;69.38;98575.34;5141774;27;20047;-67
2022/11/17 01:29:47;;;;;;;2.40;1.05;;;;;;;12.25;69.39;98566.47;5139886;27;20061;-68
2022/11/17 01:32:15;;;;;;;2.67;1.10;;;;;;;12.23;69.58;98569.44;5146972;27;20051;-68
2022/11/17 01:34:43;;;;;;;2.22;0.82;;;;;;;12.22;69.30;98567.03;5144299;27;20047;-67
2022/11/17 01:37:21;;;;;;;4.50;1.08;;;;;;;12.22;69.99;98559.75;5138967;27;20050;-68
2022/11/17 01:39:49;;;;;;;3.33;1.20;;;;;;;12.13;69.68;98539.97;5145577;27;20055;-67
2022/11/17 01:42:20;;;;;;;12.10;1.45;;;;;;;12.22;69.99;98548.97;5143882;27;20057;-67
2022/11/17 01:44:56;;;;;;;1.35;0.98;;;;;;;12.22;69.47;98540.09;5143911;27;20042;-67
2022/11/17 01:47:31;;;;;;;3.55;1.10;;;;;;;12.22;69.95;98542.78;5140383;27;20043;-68
2022/11/17 01:50:03;;;;;;;2.50;1.65;;;;;;;12.21;69.76;98542.00;5145658;27;20115;-67
2022/11/17 01:52:37;;;;;;;1.98;1.38;;;;;;;12.22;69.67;98540.09;5146589;27;20110;-67
2022/11/17 01:55:08;;;;;;;1.50;1.13;;;;;;;12.22;69.50;98542.78;5145099;27;20047;-67
2022/11/17 01:57:39;;;;;;;2.33;1.02;;;;;;;12.23;69.80;98547.09;5145941;27;20039;-67
2022/11/17 02:00:09;;;;;;;1.85;0.95;;;;;;;12.24;70.00;98535.22;5141019;27;20054;-68
2022/11/17 02:02:39;;;;;;;2.70;0.90;;;;;;;12.22;69.93;98516.66;5137436;27;20062;-67
2022/11/17 02:05:16;;;;;;;2.25;1.13;;;;;;;12.21;69.91;98509.69;5138460;27;20043;-68
2022/11/17 02:07:47;;;;;;;1.33;0.90;;;;;;;12.21;69.81;98490.81;5152696;27;20300;-67
2022/11/17 02:10:15;;;;;;;2.03;1.02;;;;;;;12.18;70.12;98531.81;5141721;27;20081;-68
2022/11/17 02:12:45;;;;;;;3.00;0.90;;;;;;;12.18;69.81;98542.56;5146274;27;20047;-67
2022/11/17 02:15:12;;;;;;;2.40;0.70;;;;;;;12.19;70.09;98522.63;5145298;27;20150;-67
2022/11/17 02:17:42;;;;;;;2.90;1.13;;;;;;;12.19;69.65;98503.78;5143208;27;20040;-67
2022/11/17 02:20:13;;;;;;;1.23;0.77;;;;;;;12.19;69.87;98508.38;5145349;27;20051;-67
2022/11/17 02:23:23;;;;;;;1.08;0.95;;;;;;;12.18;70.09;98520.22;5145954;27;20062;-67
2022/11/17 02:26:16;;;;;;;1.38;0.80;;;;;;;12.18;69.81;98518.34;5056779;28;20048;-67
2022/11/17 02:28:53;;;;;;;2.13;1.02;;;;;;;12.18;69.81;98506.75;5061704;28;20045;-67
2022/11/17 02:31:26;;;;;;;1.00;0.60;;;;;;;12.18;69.70;98510.25;5069609;28;20064;-67
2022/11/17 02:34:05;;;;;;;1.27;0.75;;;;;;;12.19;69.91;98501.09;5062044;28;20099;-67
2022/11/17 02:36:42;;;;;;;2.95;1.00;;;;;;;12.18;69.75;98488.72;5055009;28;20059;-67
2022/11/17 02:39:19;;;;;;;2.13;0.90;;;;;;;12.17;69.90;98480.94;5061207;28;20056;-67
2022/11/17 02:41:52;;;;;;;1.35;0.82;;;;;;;12.19;69.91;98470.66;5053419;28;20041;-67
2022/11/17 02:44:24;;;;;;;1.40;0.73;;;;;;;12.18;69.88;98480.63;5050849;28;20155;-67
2022/11/17 02:46:55;;;;;;;1.02;0.75;;;;;;;12.20;69.80;98469.56;5058613;28;20081;-67
2022/11/17 02:49:27;;;;;;;0.75;0.63;;;;;;;12.20;69.77;98453.41;5059078;28;20045;-67
2022/11/17 02:51:57;;;;;;;1.45;0.60;;;;;;;12.18;70.04;98444.84;5054752;28;20135;-67
2022/11/17 02:54:28;;;;;;;0.52;0.40;;;;;;;12.18;69.80;98445.63;5052747;28;20081;-67
2022/11/17 02:56:55;;;;;;;1.10;0.60;;;;;;;12.18;69.84;98436.75;5059865;28;20522;-67
2022/11/17 02:59:29;;;;;;;1.00;0.60;;;;;;;12.17;69.84;98441.34;5060769;28;20052;-67
2022/11/17 03:02:32;;;;;;;1.83;0.90;;;;;;;12.17;69.79;98440.53;5118228;27;20058;-67
2022/11/17 03:05:12;;;;;;;0.70;0.50;;;;;;;12.17;69.65;98443.22;5132850;27;20044;-67
2022/11/17 03:07:51;;;;;;;1.48;0.60;;;;;;;12.16;69.84;98428.16;5143528;27;20103;-67
2022/11/17 03:10:25;;;;;;;0.50;0.47;;;;;;;12.09;69.67;98407.03;5144354;27;20513;-67
2022/11/17 03:13:00;;;;;;;1.48;0.65;;;;;;;12.19;69.78;98428.38;5139190;27;20061;-67
2022/11/17 03:15:43;;;;;;;0.77;0.35;;;;;;;12.18;69.87;98429.47;5143511;27;20058;-67
2022/11/17 03:18:29;;;;;;;4.22;0.65;;;;;;;12.19;69.84;98430.28;5144584;27;20047;-67
2022/11/17 03:21:06;;;;;;;0.77;0.40;;;;;;;12.21;69.99;98428.91;5141754;27;20105;-67
2022/11/17 03:23:41;;;;;;;1.98;0.70;;;;;;;12.20;70.13;98423.78;5142323;27;20071;-67
2022/11/17 03:26:13;;;;;;;1.08;0.70;;;;;;;12.21;70.08;98415.44;5133589;27;20043;-67
2022/11/17 03:28:42;;;;;;;1.50;0.70;;;;;;;12.20;69.79;98415.72;5142793;27;20047;-67
2022/11/17 03:31:14;;;;;;;1.85;0.90;;;;;;;12.19;69.81;98406.84;5135384;27;20051;-67
2022/11/17 03:33:48;;;;;;;1.15;0.63;;;;;;;12.21;69.92;98410.03;5144709;27;20130;-67
2022/11/17 03:36:18;;;;;;;1.13;0.60;;;;;;;12.20;70.21;98403.06;5133133;27;20051;-67
2022/11/17 03:38:51;;;;;;;1.23;0.50;;;;;;;12.19;70.09;98400.66;5136719;27;20051;-68
2022/11/17 03:41:21;;;;;;;0.30;0.30;;;;;;;12.18;69.80;98394.47;5136221;27;20046;-68
2022/11/17 03:43:51;;;;;;;1.27;0.50;;;;;;;12.18;69.98;98397.16;5141412;27;20054;-67
2022/11/17 03:46:22;;;;;;;0.50;0.45;;;;;;;12.18;70.00;98394.47;5134354;27;20043;-67
2022/11/17 03:48:53;;;;;;;1.40;0.50;;;;;;;12.17;69.93;98382.09;5135747;27;20047;-68
2022/11/17 03:51:24;;;;;;;0.55;0.50;;;;;;;12.14;69.94;98371.13;5135453;27;20062;-67
2022/11/17 03:53:53;;;;;;;1.05;0.50;;;;;;;12.15;69.90;98378.91;5139075;27;20039;-67
2022/11/17 03:56:30;;;;;;;1.45;0.60;;;;;;;12.16;70.11;98379.69;5141230;27;20080;-67
2022/11/17 03:59:02;;;;;;;1.42;0.68;;;;;;;12.16;70.05;98383.19;5136585;27;20058;-67
2022/11/17 04:01:33;;;;;;;1.95;0.50;;;;;;;12.15;69.93;98386.19;5142663;27;20043;-67
2022/11/17 04:04:01;;;;;;;0.40;0.40;;;;;;;12.14;69.86;98377.28;5134245;27;20058;-67
2022/11/17 04:06:28;;;;;;;3.38;0.40;;;;;;;12.15;70.04;98372.72;5141052;27;20054;-68
2022/11/17 04:08:56;;;;;;;0.63;0.50;;;;;;;12.15;69.82;98370.03;5131024;27;20047;-67
2022/11/17 04:16:56;;;;;;;1.08;0.52;;;;;;;12.15;70.14;98372.72;5135851;27;20039;-68
2022/11/17 04:19:24;;;;;;;1.25;0.38;;;;;;;12.15;70.24;98370.81;5142753;27;20058;-67
2022/11/17 04:21:51;;;;;;;2.65;0.63;;;;;;;12.14;70.20;98373.81;5141506;27;20046;-67
2022/11/17 04:24:19;;;;;;;1.20;0.68;;;;;;;12.13;70.24;98383.81;5142054;27;20046;-67
2022/11/17 04:29:32;;;;;;;1.30;0.77;;;;;;;12.14;70.02;98381.88;5132799;27;20085;-67
2022/11/17 04:32:02;;;;;;;0.47;0.47;;;;;;;12.15;70.38;98378.09;5139994;27;20044;-67
2022/11/17 04:34:29;;;;;;;1.75;0.68;;;;;;;12.12;70.04;98376.81;5140260;27;20043;-67
2022/11/17 04:36:57;;;;;;;0.25;0.25;;;;;;;12.12;70.41;98365.25;5138450;27;20066;-67
2022/11/17 04:39:28;;;;;;;1.77;0.50;;;;;;;12.11;70.66;98350.19;5143115;27;20058;-67
2022/11/17 04:41:56;;;;;;;2.17;0.57;;;;;;;12.11;70.33;98342.91;5133140;27;20048;-67
2022/11/17 04:44:26;;;;;;;1.10;0.50;;;;;;;12.12;70.41;98341.03;5128006;27;20111;-67
2022/11/17 04:46:54;;;;;;;1.42;0.60;;;;;;;12.12;70.18;98335.63;5142864;27;20100;-67
2022/11/17 04:49:25;;;;;;;0.68;0.43;;;;;;;12.11;70.23;98321.38;5142727;27;20099;-67
2022/11/17 04:51:53;;;;;;;1.55;0.50;;;;;;;12.11;70.57;98326.75;5140929;27;20051;-67
2022/11/17 04:54:23;;;;;;;1.42;0.63;;;;;;;12.10;70.17;98330.53;5131282;27;20047;-67
2022/11/17 04:56:52;;;;;;;1.65;0.75;;;;;;;12.10;70.38;98332.44;5141761;27;20059;-67
2022/11/17 04:59:20;;;;;;;1.42;0.82;;;;;;;12.11;70.43;98328.66;5135948;27;20035;-67
2022/11/17 05:01:48;;;;;;;1.23;0.55;;;;;;;12.11;70.48;98332.16;5143249;27;20055;-67
2022/11/17 05:04:54;;;;;;;0.75;0.50;;;;;;;12.12;70.54;98325.66;5132870;27;20055;-67
2022/11/17 05:07:08;;;;;;;2.58;0.70;;;;;;;12.12;70.82;98335.63;5138582;28;20046;-67
2022/11/17 05:09:36;;;;;;;3.35;0.82;;;;;;;12.12;70.59;98327.56;5142506;28;20564;-66
2022/11/17 05:14:49;;;;;;;2.40;0.70;;;;;;;12.15;70.45;98359.25;5132342;28;20136;-67
2022/11/17 05:17:16;;;;;;;3.38;0.88;;;;;;;12.14;71.04;98365.72;5141208;28;20055;-66
2022/11/17 05:19:45;;;;;;;2.10;0.85;;;;;;;12.12;70.48;98373.31;5141679;28;20047;-67
2022/11/17 05:25:02;;;;;;;3.38;0.93;;;;;;;12.15;70.63;98367.31;5142908;28;20058;-66
2022/11/17 05:27:30;;;;;;;2.88;0.77;;;;;;;12.15;70.62;98378.09;5138532;27;20057;-67
2022/11/17 05:29:58;;;;;;;4.00;0.90;;;;;;;12.15;70.83;98372.72;5132059;28;20070;-67
2022/11/17 05:32:26;;;;;;;4.32;0.90;;;;;;;12.14;70.84;98373.81;5142718;28;20047;-66
2022/11/17 05:34:53;;;;;;;3.67;0.80;;;;;;;12.14;70.64;98379.19;5137034;28;20051;-67
2022/11/17 05:37:22;;;;;;;2.72;0.60;;;;;;;12.15;70.56;98372.72;5137960;28;20058;-67
2022/11/17 05:39:50;;;;;;;2.90;0.88;;;;;;;12.14;70.58;98376.50;5121477;28;20047;-67
2022/11/17 05:42:18;;;;;;;5.53;1.00;;;;;;;12.13;70.84;98381.13;5136681;28;20043;-67
2022/11/17 05:44:47;;;;;;;2.00;0.82;;;;;;;12.14;70.82;98385.38;5142024;28;20039;-67
2022/11/17 05:47:15;;;;;;;4.50;1.40;;;;;;;12.13;70.79;98391.88;5138265;28;20047;-67
2022/11/17 05:49:43;;;;;;;6.03;1.13;;;;;;;12.20;70.92;98392.28;5126354;28;20062;-67
2022/11/17 05:52:10;;;;;;;5.97;1.40;;;;;;;12.20;70.91;98389.59;5142077;28;20070;-67
2022/11/17 05:54:39;;;;;;;2.70;0.93;;;;;;;12.19;70.57;98396.06;5140190;27;20051;-67
2022/11/17 05:57:13;;;;;;;4.85;1.40;;;;;;;12.20;70.84;98392.28;5136973;27;20063;-67
2022/11/17 05:59:45;;;;;;;5.13;1.10;;;;;;;12.21;70.80;98396.59;5130741;28;20043;-67
2022/11/17 06:02:17;;;;;;;5.65;1.50;;;;;;;12.22;70.83;98405.47;5140228;28;20504;-67
2022/11/17 06:04:46;;;;;;;2.88;1.08;;;;;;;12.22;70.54;98405.47;5141662;28;20053;-71
2022/11/17 06:07:13;;;;;;;4.20;1.17;;;;;;;12.28;70.75;98412.38;5132887;28;20043;-71
2022/11/17 06:09:43;;;;;;;3.40;1.50;;;;;;;12.26;70.73;98409.16;5143785;27;20071;-70
2022/11/17 06:12:11;;;;;;;4.03;1.30;;;;;;;12.24;70.46;98405.97;5145504;27;20051;-68
2022/11/17 06:14:39;;;;;;;2.70;0.85;;;;;;;12.39;70.32;98414.63;5144076;27;20047;-69
2022/11/17 06:17:11;;;;;;;4.00;1.25;;;;;;;12.33;70.58;98418.47;5146175;27;20054;-68
2022/11/17 06:19:45;;;;;;;4.68;1.33;;;;;;;12.49;69.89;98415.56;5144356;27;20142;-68
2022/11/17 06:22:12;;;;;;;3.55;1.17;;;;;;;12.39;70.40;98416.50;5136242;27;20062;-68
2022/11/17 06:24:44;;;;;;;5.38;1.17;;;;;;;12.37;70.08;98424.88;5140639;27;20051;-68
2022/11/17 06:27:14;;;;;;;3.15;1.13;;;;;;;12.45;70.39;98431.50;5141863;27;20051;-68
2022/11/17 06:29:43;;;;;;;3.75;1.20;;;;;;;12.34;70.29;98427.34;5140145;27;20043;-71
2022/11/17 06:32:13;;;;;;;4.18;0.90;;;;;;;12.29;70.34;98435.50;5144910;27;20142;-70
2022/11/17 06:34:42;;;;;;;4.65;1.23;;;;;;;12.26;70.50;98442.28;5146636;27;20138;-68
2022/11/17 06:37:10;;;;;;;4.40;0.90;;;;;;;12.23;70.51;98434.78;5143494;27;20052;-67
2022/11/17 06:39:37;;;;;;;3.33;1.10;;;;;;;12.49;70.23;98431.72;5134398;27;20060;-69
2022/11/17 06:42:06;;;;;;;3.15;1.17;;;;;;;12.52;69.94;98437.31;5146808;27;20039;-65
2022/11/17 06:44:34;;;;;;;3.67;2.03;;;;;;;12.44;70.27;98445.25;4777691;27;10000023;-70
2022/11/17 06:47:02;;;;;;;4.07;0.85;;;;;;;12.41;70.31;98448.53;5141537;27;20984;-68
2022/11/17 06:49:29;;;;;;;2.55;1.17;;;;;;;12.34;69.95;98452.41;5139596;27;20054;-66
2022/11/17 06:51:57;;;;;;;3.85;0.88;;;;;;;12.39;70.05;98449.63;5140229;27;20492;-66
2022/11/17 06:54:25;;;;;;;2.90;1.17;;;;;;;12.35;70.50;98448.63;5137428;27;20047;-66
2022/11/17 06:56:54;;;;;;;3.22;0.80;;;;;;;12.93;69.29;98445.53;5143480;27;20087;-67
2022/11/17 06:59:23;;;;;;;3.10;1.50;;;;;;;12.58;69.27;98459.59;5138807;27;20081;-67
2022/11/17 07:01:51;;;;;;;3.28;1.20;;;;;;;12.46;69.81;98461.94;5122685;28;20086;-67
2022/11/17 07:04:18;;;;;;;4.90;1.38;;;;;;;12.41;69.99;98464.69;5122150;27;20083;-67
2022/11/17 07:06:46;;;;;;;3.65;1.02;;;;;;;12.39;70.42;98468.50;5135043;27;20082;-67
2022/11/17 07:09:14;;;;;;;3.22;1.63;;;;;;;12.48;69.94;98471.31;5139842;27;20070;-67
2022/11/17 07:11:41;;;;;;;3.58;1.10;;;;;;;12.47;70.09;98475.09;5142279;27;20109;-65
2022/11/17 07:14:09;;;;;;;8.23;2.25;;;;;;;12.43;70.48;98474.09;5126214;27;20922;-64
2022/11/17 07:16:41;;;;;;;5.30;0.90;;;;;;;12.77;69.90;98476.53;5140573;27;20078;-70
2022/11/17 07:19:09;;;;;;;3.95;1.10;;;;;;;12.55;69.43;98476.34;5143834;27;20061;-65
2022/11/17 07:21:37;;;;;;;3.55;1.30;;;;;;;12.42;70.01;98477.88;5133540;27;20048;-65
2022/11/17 07:24:05;;;;;;;4.90;1.90;;;;;;;12.49;70.16;98486.41;5126983;27;20232;-66
2022/11/17 07:26:33;;;;;;;2.75;1.27;;;;;;;12.40;70.37;98490.84;5142801;27;20130;-65
2022/11/17 07:29:01;;;;;;;4.78;1.13;;;;;;;12.37;70.27;98492.22;5145369;27;20077;-65
2022/11/17 07:31:30;;;;;;;5.47;0.88;;;;;;;12.88;69.56;98490.66;5125356;28;20096;-68
2022/11/17 07:33:59;;;;;;;4.85;1.08;;;;;;;12.57;69.77;98495.72;5142213;27;20074;-65
2022/11/17 07:36:27;;;;;;;4.68;1.90;;;;;;;12.43;70.54;98501.03;5145292;27;20081;-64
2022/11/17 07:38:54;;;;;;;3.38;1.25;;;;;;;12.36;70.40;98504.09;5142007;27;20082;-65
2022/11/17 07:41:22;;;;;;;1.58;0.80;;;;;;;12.42;70.97;98506.72;5126330;27;20112;-65
2022/11/17 07:43:50;;;;;;;4.38;1.45;;;;;;;12.36;70.53;98514.84;5133381;27;20066;-65
2022/11/17 07:46:17;;;;;;;3.05;1.33;;;;;;;12.31;71.06;98517.63;5137166;27;20081;-66
2022/11/17 07:48:45;;;;;;;5.47;1.40;;;;;;;12.39;70.62;98516.97;5140635;27;20184;-65
2022/11/17 07:51:16;;;;;;;4.47;0.75;;;;;;;12.41;70.64;98526.66;5132779;27;20052;-65
2022/11/17 07:53:43;;;;;;;4.82;0.90;;;;;;;12.38;70.78;98519.97;5131237;27;20134;-65
2022/11/17 07:56:12;;;;;;;4.32;0.93;;;;;;;12.34;70.50;98527.00;5138054;27;20079;-65
2022/11/17 07:58:40;;;;;;;2.53;1.00;;;;;;;12.32;70.64;98532.69;5139388;27;20137;-64
2022/11/17 08:01:09;;;;;;;4.47;0.90;;;;;;;12.41;71.02;98524.75;5140657;27;20054;-65
2022/11/17 08:03:37;;;;;;;3.05;1.02;;;;;;;12.64;70.61;98518.50;5140488;27;20039;-64
2022/11/17 08:06:06;;;;;;;9.18;1.63;;;;;;;12.72;69.57;98530.53;5138766;27;20107;-65
2022/11/17 08:08:36;;;;;;;3.22;1.48;;;;;;;12.42;69.77;98522.88;5130931;27;20282;-64
2022/11/17 08:11:06;;;;;;;5.85;1.50;;;;;;;12.55;70.29;98541.00;5135895;27;20115;-66
2022/11/17 08:13:34;;;;;;;2.70;0.80;;;;;;;12.42;70.46;98544.41;5140534;27;20058;-66
2022/11/17 08:16:02;;;;;;;2.28;0.85;;;;;;;12.66;69.71;98547.84;5140307;27;20579;-64
2022/11/17 08:18:31;;;;;;;2.95;0.70;;;;;;;12.80;68.91;98545.22;5125068;27;20043;-64
2022/11/17 08:21:03;;;;;;;5.35;1.10;;;;;;;12.67;69.59;98550.25;5120725;28;20047;-64
2022/11/17 08:23:30;;;;;;;4.75;0.88;;;;;;;12.59;69.98;98555.50;5119401;28;20052;-65
2022/11/17 08:26:01;;;;;;;2.40;1.30;;;;;;;12.53;69.65;98557.47;5131199;27;20122;-65
2022/11/17 08:28:29;;;;;;;1.48;0.50;;;;;;;12.42;70.02;98560.59;5122506;27;20090;-64
2022/11/17 08:30:57;;;;;;;2.78;0.90;;;;;;;12.34;70.29;98548.56;5136001;27;20110;-65
2022/11/17 08:33:24;;;;;;;1.90;0.80;;;;;;;12.39;70.12;98568.16;5137052;27;20066;-64
2022/11/17 08:35:52;;;;;;;3.13;2.05;;;;;;;12.34;70.52;98568.22;5137474;27;20071;-64
2022/11/17 08:38:20;;;;;;;2.30;0.98;;;;;;;12.34;70.38;98565.53;5139429;27;20061;-64
2022/11/17 08:40:48;;;;;;;2.60;0.70;;;;;;;12.30;70.38;98567.19;5140133;27;20126;-65
2022/11/17 08:43:17;;;;;;;2.83;1.02;;;;;;;12.37;70.17;98572.22;5133393;27;20040;-64
2022/11/17 08:45:44;;;;;;;2.35;0.73;;;;;;;12.32;70.09;98581.16;5136550;27;20104;-65
2022/11/17 08:48:12;;;;;;;2.10;0.90;;;;;;;12.50;70.60;98570.72;5137274;27;20090;-67
2022/11/17 08:50:40;;;;;;;1.83;0.70;;;;;;;12.44;69.75;98572.66;5141501;27;20111;-65
2022/11/17 08:53:13;;;;;;;2.08;0.90;;;;;;;12.57;70.44;98571.16;5137693;27;20082;-64
2022/11/17 08:55:41;;;;;;;2.55;1.05;;;;;;;12.56;69.15;98583.81;5136790;27;20123;-64
2022/11/17 08:58:09;;;;;;;4.95;0.70;;;;;;;12.74;69.45;98590.31;5137469;27;20078;-65
2022/11/17 09:00:38;;;;;;;2.17;1.00;;;;;;;12.59;69.48;98587.84;5137725;27;20035;-65
2022/11/17 09:03:07;;;;;;;2.63;0.80;;;;;;;12.59;69.44;98585.94;5139338;27;20069;-66
2022/11/17 09:05:38;;;;;;;2.88;0.95;;;;;;;12.43;69.73;98591.81;5142036;28;20465;-63
2022/11/17 09:08:06;;;;;;;1.35;0.65;;;;;;;12.44;69.53;98593.41;5136301;28;20060;-64
2022/11/17 09:10:54;;;;;;;3.60;0.68;;;;;;;12.36;70.19;98594.88;5141714;28;20171;-64
2022/11/17 09:13:22;;;;;;;2.75;0.90;;;;;;;12.31;70.07;98598.41;5148320;27;20043;-64
2022/11/17 09:15:51;;;;;;;2.45;0.77;;;;;;;12.28;70.50;98603.59;5141195;28;20066;-64
2022/11/17 09:18:19;;;;;;;5.13;0.88;;;;;;;12.26;69.91;98606.56;5142962;28;20111;-64
2022/11/17 09:20:46;;;;;;;3.03;0.90;;;;;;;12.23;70.39;98601.75;5131220;28;20107;-64
2022/11/17 09:23:14;;;;;;;4.60;1.00;;;;;;;12.23;70.22;98604.44;5121670;28;20525;-64
2022/11/17 09:25:42;;;;;;;1.77;0.70;;;;;;;12.36;70.02;98603.75;5140485;27;20078;-64
2022/11/17 09:28:09;;;;;;;1.92;1.10;;;;;;;12.27;69.82;98616.25;5143079;28;20084;-64
2022/11/17 09:30:37;;;;;;;2.80;1.45;;;;;;;12.39;70.25;98610.44;5141955;28;20049;-65
2022/11/17 09:33:06;;;;;;;1.70;0.80;;;;;;;12.42;69.68;98617.16;5138545;27;20137;-65
2022/11/17 09:35:34;;;;;;;3.05;0.98;;;;;;;12.33;69.91;98623.19;5143461;28;20082;-65
2022/11/17 09:38:02;;;;;;;3.55;0.93;;;;;;;12.45;70.08;98619.28;5140674;28;20504;-65
2022/11/17 09:40:29;;;;;;;2.55;1.00;;;;;;;12.34;69.53;98627.47;5139591;28;20139;-65
2022/11/17 09:43:08;;;;;;;2.30;0.70;;;;;;;12.58;70.16;98623.94;5142626;27;20123;-65
2022/11/17 09:45:39;;;;;;;3.40;0.82;;;;;;;12.46;70.14;98637.84;5144608;27;20051;-64
2022/11/17 09:48:14;;;;;;;2.28;0.93;;;;;;;12.35;69.88;98634.47;5143199;27;20039;-65
2022/11/17 09:51:04;;;;;;;0.80;0.60;;;;;;;12.29;70.25;98643.69;5146434;27;20412;-66
2022/11/17 09:53:43;;;;;;;4.00;0.70;;;;;;;12.30;69.80;98641.81;5138592;27;20403;-64
2022/11/17 09:56:13;;;;;;;3.70;0.80;;;;;;;12.45;69.74;98652.41;5146741;27;20086;-64
2022/11/17 09:58:45;;;;;;;1.20;0.57;;;;;;;12.38;69.82;98650.06;5140750;27;20044;-65
2022/11/17 10:01:15;;;;;;;3.10;0.80;;;;;;;12.32;69.63;98656.59;5136170;27;20043;-65
2022/11/17 10:03:47;;;;;;;1.65;0.68;;;;;;;12.30;70.00;98655.28;5139147;27;20059;-64
2022/11/17 10:06:19;;;;;;;2.95;1.38;;;;;;;12.28;70.14;98655.56;5126943;28;20051;-63
2022/11/17 10:08:57;;;;;;;5.38;0.85;;;;;;;12.37;69.80;98664.63;5144786;27;20055;-64
2022/11/17 10:11:31;;;;;;;1.65;0.70;;;;;;;12.37;69.94;98675.38;4783828;27;9999976;-65
2022/11/17 10:14:03;;;;;;;2.92;0.73;;;;;;;12.37;70.08;98666.50;5125138;27;20075;-65
2022/11/17 10:16:31;;;;;;;2.83;0.80;;;;;;;12.36;70.03;98673.78;5142184;27;20047;-64
2022/11/17 10:19:02;;;;;;;5.82;0.85;;;;;;;12.41;70.04;98681.00;5142291;27;20057;-64
2022/11/17 10:21:30;;;;;;;2.03;0.57;;;;;;;12.69;68.89;98677.44;5143438;27;20449;-64
2022/11/17 10:23:59;;;;;;;1.00;0.68;;;;;;;12.51;69.12;98680.88;5138629;27;20057;-64
2022/11/17 10:26:27;;;;;;;2.83;0.65;;;;;;;12.49;69.37;98680.38;5139061;27;20051;-64
2022/11/17 10:29:21;;;;;;;2.65;0.82;;;;;;;12.49;69.24;98693.03;5133784;27;20135;-64
2022/11/17 10:31:49;;;;;;;5.85;1.20;;;;;;;12.50;69.23;98686.56;5120532;28;20103;-65
2022/11/17 10:34:32;;;;;;;3.72;0.70;;;;;;;12.48;69.47;98688.75;5122440;28;20254;-64
2022/11/17 10:37:25;;;;;;;1.83;0.80;;;;;;;12.48;69.33;98692.25;5125219;27;20054;-64
2022/11/17 10:40:09;;;;;;;8.40;0.88;;;;;;;12.51;69.20;98704.34;5134456;27;20118;-65
2022/11/17 10:42:37;;;;;;;2.05;0.70;;;;;;;12.45;69.56;98703.59;5142312;27;20055;-64
2022/11/17 10:45:06;;;;;;;1.45;0.68;;;;;;;12.87;68.28;98704.72;5142814;27;20134;-64
2022/11/17 10:47:38;;;;;;;1.60;0.47;;;;;;;12.75;68.51;98699.72;5128522;27;20050;-64
2022/11/17 10:50:17;;;;;;;1.95;0.73;;;;;;;12.65;68.79;98706.06;5139476;27;20126;-64
2022/11/17 10:52:45;;;;;;;2.40;0.80;;;;;;;12.63;68.60;98702.84;5131929;27;20047;-64
2022/11/17 10:55:24;;;;;;;2.03;0.82;;;;;;;12.52;68.93;98716.72;5122617;27;20236;-64
2022/11/17 10:57:56;;;;;;;3.35;1.48;;;;;;;12.46;69.53;98709.78;5133344;27;20074;-64
2022/11/17 11:00:28;;;;;;;3.08;0.70;;;;;;;12.43;69.61;98710.34;5131045;27;20046;-65
2022/11/17 11:03:17;;;;;;;2.47;1.05;;;;;;;12.43;69.49;98713.84;5122088;28;20111;-65
2022/11/17 11:06:21;;;;;;;2.42;0.80;;;;;;;12.41;69.58;98712.53;5122286;28;20044;-64
2022/11/17 11:08:54;;;;;;;1.45;0.85;;;;;;;12.70;68.84;98719.47;5129133;27;20111;-65
2022/11/17 11:11:35;;;;;;;2.38;0.80;;;;;;;12.59;69.26;98709.91;5122420;27;20082;-65
2022/11/17 11:14:12;;;;;;;2.63;0.70;;;;;;;12.59;69.04;98719.88;5136197;27;20043;-64
2022/11/17 11:16:40;;;;;;;3.90;1.00;;;;;;;12.54;68.89;98722.63;5142339;27;20047;-64
2022/11/17 11:19:16;;;;;;;3.72;0.90;;;;;;;12.46;69.45;98721.34;5139511;27;20511;-65
2022/11/17 11:22:10;;;;;;;1.33;0.65;;;;;;;12.50;69.49;98724.28;5142513;27;20098;-65
2022/11/17 11:24:50;;;;;;;2.10;0.70;;;;;;;12.48;68.96;98715.69;5125300;27;20051;-64
2022/11/17 11:27:35;;;;;;;3.97;0.90;;;;;;;12.47;69.03;98736.44;5127868;27;20134;-64
2022/11/17 11:30:05;;;;;;;3.35;0.90;;;;;;;12.45;68.99;98722.44;5141193;27;20065;-64
2022/11/17 11:32:45;;;;;;;1.95;0.50;;;;;;;12.42;68.83;98730.28;5138854;27;20051;-65
2022/11/17 11:35:34;;;;;;;4.97;0.90;;;;;;;12.44;69.04;98749.66;5142044;27;20050;-64
2022/11/17 11:38:14;;;;;;;2.42;0.80;;;;;;;12.52;68.93;98747.16;5138995;27;20211;-66
2022/11/17 11:40:47;;;;;;;4.20;0.80;;;;;;;12.57;69.01;98749.78;5127046;27;20133;-64
2022/11/17 11:43:30;;;;;;;1.67;0.70;;;;;;;12.55;68.92;98751.16;5137494;27;20043;-64
2022/11/17 11:46:08;;;;;;;3.20;0.90;;;;;;;12.64;68.66;98761.03;5141946;27;20587;-64
2022/11/17 11:48:40;;;;;;;2.85;0.80;;;;;;;12.53;68.26;98764.94;5139163;27;20050;-66
2022/11/17 11:51:14;;;;;;;4.15;1.27;;;;;;;12.45;68.86;98765.56;5141469;27;20122;-66
2022/11/17 11:53:51;;;;;;;3.70;0.80;;;;;;;12.42;68.79;98773.41;5128844;27;20048;-66
2022/11/17 11:56:24;;;;;;;2.53;1.33;;;;;;;12.38;68.96;98767.78;5131282;27;20071;-64
2022/11/17 11:58:58;;;;;;;2.45;0.98;;;;;;;12.34;69.04;98774.81;5140635;27;20123;-65
2022/11/17 12:01:28;;;;;;;4.35;0.93;;;;;;;12.44;68.94;98768.53;5136009;27;20077;-65
2022/11/17 12:04:13;;;;;;;3.88;1.02;;;;;;;12.49;68.70;98768.47;5121125;28;20122;-64
2022/11/17 12:06:48;;;;;;;2.20;1.00;;;;;;;12.39;68.56;98772.06;5139410;27;20043;-67
2022/11/17 12:09:50;;;;;;;2.90;0.88;;;;;;;12.36;68.64;98770.75;5137706;27;20090;-65
2022/11/17 12:12:25;;;;;;;2.55;0.73;;;;;;;12.34;68.80;98772.94;5124790;27;20047;-64
2022/11/17 12:15:35;;;;;;;2.53;1.05;;;;;;;12.33;68.57;98770.53;5120343;28;20056;-64
2022/11/17 12:18:13;;;;;;;4.18;1.60;;;;;;;12.33;68.95;98774.00;5126190;27;20069;-66